createdAt,value
2018-09-08T00:02:28.983Z,2.47
2018-09-08T00:04:58.569Z,2.60
2018-09-08T00:07:33.056Z,2.60
2018-09-08T00:10:02.222Z,2.33
2018-09-08T00:12:31.347Z,2.40
2018-09-08T00:15:05.791Z,2.90
2018-09-08T00:17:40.306Z,3.10
2018-09-08T00:20:14.880Z,2.87
2018-09-08T00:22:49.450Z,3.10
2018-09-08T00:25:23.964Z,2.70
2018-09-08T00:28:58.026Z,2.80
2018-09-08T00:31:27.172Z,3.20
2018-09-08T00:33:57.059Z,3.07
2018-09-08T00:36:26.230Z,2.80
2018-09-08T00:38:55.399Z,2.93
2018-09-08T00:41:25.436Z,2.87
2018-09-08T00:43:54.560Z,3.23
2018-09-08T00:46:23.720Z,2.97
2018-09-08T00:48:52.860Z,2.73
2018-09-08T00:51:22.890Z,3.13
2018-09-08T00:53:52.113Z,3.07
2018-09-08T00:56:21.251Z,3.53
2018-09-08T00:58:55.765Z,3.27
2018-09-08T01:01:24.923Z,2.93
2018-09-08T01:03:54.191Z,3.10
2018-09-08T01:06:23.232Z,2.77
2018-09-08T01:08:52.360Z,3.13
2018-09-08T01:11:21.571Z,2.77
2018-09-08T01:13:50.849Z,2.93
2018-09-08T01:16:20.569Z,2.63
2018-09-08T01:18:49.773Z,2.33
2018-09-08T01:21:18.973Z,2.80
2018-09-08T01:23:53.171Z,2.47
2018-09-08T01:26:23.186Z,3.00
2018-09-08T01:28:52.516Z,2.40
2018-09-08T01:31:21.827Z,2.80
2018-09-08T01:33:51.014Z,2.40
2018-09-08T01:36:20.181Z,2.50
2018-09-08T01:38:49.368Z,2.90
2018-09-08T01:41:18.518Z,3.07
2018-09-08T01:43:47.763Z,2.50
2018-09-08T01:46:16.953Z,2.57
2018-09-08T01:48:46.322Z,2.80
2018-09-08T01:51:15.449Z,2.60
2018-09-08T01:53:44.582Z,2.63
2018-09-08T01:56:13.701Z,2.60
2018-09-08T01:58:42.856Z,2.60
2018-09-08T02:01:12.126Z,2.43
2018-09-08T02:03:41.264Z,2.60
2018-09-08T02:06:10.571Z,2.57
2018-09-08T02:08:39.659Z,2.80
2018-09-08T02:11:09.386Z,2.93
2018-09-08T02:13:38.505Z,3.20
2018-09-08T02:16:07.704Z,3.03
2018-09-08T02:18:37.434Z,3.53
2018-09-08T02:21:06.631Z,3.00
2018-09-08T02:23:35.795Z,2.90
2018-09-08T02:26:05.075Z,3.03
2018-09-08T02:28:34.805Z,3.37
2018-09-08T02:31:04.013Z,3.80
2018-09-08T02:33:33.202Z,3.73
2018-09-08T02:36:02.538Z,4.40
2018-09-08T02:38:31.676Z,4.37
2018-09-08T02:41:01.386Z,4.07
2018-09-08T02:43:30.512Z,4.30
2018-09-08T02:45:59.712Z,4.20
2018-09-08T02:48:28.964Z,3.80
2018-09-08T02:50:56.948Z,4.27
2018-09-08T02:53:24.920Z,4.17
2018-09-08T02:55:52.892Z,4.30
2018-09-08T02:58:20.903Z,4.50
2018-09-08T03:00:48.889Z,4.10
2018-09-08T03:03:16.863Z,4.90
2018-09-08T03:05:44.864Z,4.73
2018-09-08T03:08:12.837Z,4.47
2018-09-08T03:10:40.910Z,4.73
2018-09-08T03:13:08.883Z,4.80
2018-09-08T03:15:36.858Z,4.73
2018-09-08T03:18:04.846Z,4.70
2018-09-08T03:20:32.873Z,4.73
2018-09-08T03:23:00.831Z,4.70
2018-09-08T03:25:28.805Z,5.50
2018-09-08T03:27:57.700Z,4.83
2018-09-08T03:30:25.933Z,5.30
2018-09-08T03:32:54.013Z,4.80
2018-09-08T03:35:22.005Z,4.87
2018-09-08T03:37:49.984Z,4.30
2018-09-08T03:40:17.941Z,4.03
2018-09-08T03:42:46.015Z,4.63
2018-09-08T03:45:14.019Z,4.83
2018-09-08T03:47:41.981Z,4.60
2018-09-08T03:50:09.927Z,4.30
2018-09-08T03:52:37.908Z,4.53
2018-09-08T03:55:05.887Z,4.43
2018-09-08T03:57:33.863Z,4.40
2018-09-08T04:00:01.871Z,4.30
2018-09-08T04:02:29.871Z,4.47
2018-09-08T04:04:59.036Z,4.30
2018-09-08T04:07:28.168Z,4.33
2018-09-08T04:09:59.443Z,4.67
2018-09-08T04:12:28.657Z,4.50
2018-09-08T04:14:57.827Z,4.53
2018-09-08T04:17:28.629Z,4.60
2018-09-08T04:19:57.807Z,4.47
2018-09-08T04:22:33.144Z,4.70
2018-09-08T04:25:02.954Z,5.30
2018-09-08T04:27:32.157Z,4.60
2018-09-08T04:30:01.321Z,4.53
2018-09-08T04:32:30.475Z,4.70
2018-09-08T04:34:59.813Z,4.90
2018-09-08T04:37:29.084Z,5.00
2018-09-08T04:39:58.275Z,5.30
2018-09-08T04:42:27.459Z,4.50
2018-09-08T04:44:57.147Z,5.27
2018-09-08T04:47:26.324Z,5.30
2018-09-08T04:49:55.533Z,5.10
2018-09-08T04:52:24.724Z,5.53
2018-09-08T04:54:53.873Z,5.37
2018-09-08T04:57:23.134Z,6.07
2018-09-08T04:59:52.321Z,6.03
2018-09-08T05:02:21.615Z,6.23
2018-09-08T05:04:50.708Z,6.63
2018-09-08T05:07:19.884Z,6.77
2018-09-08T05:09:48.983Z,7.60
2018-09-08T05:12:18.131Z,7.60
2018-09-08T05:14:47.256Z,7.50
2018-09-08T05:17:16.406Z,8.00
2018-09-08T05:19:45.750Z,7.83
2018-09-08T05:22:15.668Z,7.97
2018-09-08T05:24:44.888Z,8.03
2018-09-08T05:27:14.424Z,7.93
2018-09-08T05:29:43.645Z,8.10
2018-09-08T05:32:12.948Z,7.80
2018-09-08T05:34:42.113Z,8.03
2018-09-08T05:37:11.340Z,8.43
2018-09-08T05:39:40.638Z,8.87
2018-09-08T05:42:10.474Z,8.43
2018-09-08T05:44:39.620Z,8.30
2018-09-08T05:47:09.272Z,8.70
2018-09-08T05:49:38.370Z,8.37
2018-09-08T05:52:07.520Z,7.80
2018-09-08T05:54:36.771Z,8.27
2018-09-08T05:57:06.161Z,7.77
2018-09-08T05:59:35.301Z,7.97
2018-09-08T06:02:04.548Z,8.10
2018-09-08T06:04:33.761Z,7.70
2018-09-08T06:07:03.976Z,7.73
2018-09-08T06:09:34.821Z,7.13
2018-09-08T06:12:04.006Z,7.57
2018-09-08T06:14:33.525Z,7.13
2018-09-08T06:17:03.287Z,6.87
2018-09-08T06:19:32.548Z,6.37
2018-09-08T06:22:01.569Z,6.27
2018-09-08T06:24:30.825Z,6.10
2018-09-08T06:26:59.926Z,6.50
2018-09-08T06:29:29.167Z,6.83
2018-09-08T06:31:58.403Z,6.63
2018-09-08T06:34:27.543Z,6.27
2018-09-08T06:36:56.672Z,6.20
2018-09-08T06:39:25.868Z,5.80
2018-09-08T06:41:55.100Z,6.20
2018-09-08T06:44:24.214Z,6.33
2018-09-08T06:46:53.388Z,6.57
2018-09-08T06:49:22.670Z,6.77
2018-09-08T06:51:52.110Z,6.20
2018-09-08T06:54:21.325Z,6.60
2018-09-08T06:56:50.464Z,6.07
2018-09-08T06:59:19.641Z,6.00
2018-09-08T07:01:48.827Z,5.87
2018-09-08T07:04:17.961Z,6.60
2018-09-08T07:06:47.083Z,5.83
2018-09-08T07:09:16.180Z,5.37
2018-09-08T07:11:45.317Z,5.70
2018-09-08T07:14:14.616Z,5.80
2018-09-08T07:16:43.740Z,5.50
2018-09-08T07:19:12.912Z,5.27
2018-09-08T07:21:42.150Z,5.37
2018-09-08T07:24:11.877Z,5.30
2018-09-08T07:26:41.069Z,5.07
2018-09-08T07:29:10.180Z,5.73
2018-09-08T07:31:39.360Z,5.93
2018-09-08T07:34:08.552Z,5.77
2018-09-08T07:36:38.640Z,5.73
2018-09-08T07:39:09.633Z,4.83
2018-09-08T07:41:38.884Z,5.33
2018-09-08T07:44:08.132Z,5.33
2018-09-08T07:46:37.284Z,5.17
2018-09-08T07:49:06.673Z,5.53
2018-09-08T07:51:35.796Z,4.53
2018-09-08T07:54:05.483Z,4.77
2018-09-08T07:56:34.656Z,4.90
2018-09-08T07:59:03.755Z,5.27
2018-09-08T08:01:32.924Z,4.63
2018-09-08T08:04:02.161Z,4.73
2018-09-08T08:06:31.369Z,4.43
2018-09-08T08:09:00.466Z,4.40
2018-09-08T08:11:29.624Z,4.80
2018-09-08T08:13:58.835Z,4.33
2018-09-08T08:16:27.981Z,4.20
2018-09-08T08:18:57.164Z,4.10
2018-09-08T08:21:33.641Z,3.60
2018-09-08T08:24:03.481Z,3.70
2018-09-08T08:26:32.692Z,3.53
2018-09-08T08:29:01.823Z,3.60
2018-09-08T08:31:31.105Z,3.30
2018-09-08T08:34:00.261Z,3.40
2018-09-08T08:36:29.453Z,3.47
2018-09-08T08:38:59.251Z,2.53
2018-09-08T08:41:28.385Z,2.70
2018-09-08T08:43:57.565Z,2.80
2018-09-08T08:46:26.789Z,2.40
2018-09-08T08:48:55.984Z,2.30
2018-09-08T08:51:36.400Z,2.50
2018-09-08T08:54:12.242Z,2.00
2018-09-08T08:56:41.381Z,2.27
2018-09-08T08:59:10.518Z,2.13
2018-09-08T09:01:39.930Z,2.40
2018-09-08T09:04:09.080Z,2.07
2018-09-08T09:06:38.231Z,2.20
2018-09-08T09:09:09.854Z,2.10
2018-09-08T09:11:39.479Z,2.10
2018-09-08T09:14:08.181Z,1.90
2018-09-08T09:16:37.345Z,2.23
2018-09-08T09:19:34.046Z,2.00
2018-09-08T09:22:15.592Z,1.87
2018-09-08T09:25:13.060Z,1.97
2018-09-08T09:27:46.596Z,1.80
2018-09-08T09:30:16.275Z,1.80
2018-09-08T09:32:45.900Z,2.10
2018-09-08T09:35:17.531Z,1.50
2018-09-08T09:37:46.659Z,1.63
2018-09-08T09:40:17.164Z,1.80
2018-09-08T09:42:46.292Z,1.40
2018-09-08T09:45:15.464Z,1.40
2018-09-08T09:47:44.608Z,1.63
2018-09-08T09:50:14.079Z,1.77
2018-09-08T09:52:43.283Z,1.90
2018-09-08T09:55:12.415Z,1.60
2018-09-08T09:57:41.579Z,1.60
2018-09-08T10:00:14.977Z,1.60
2018-09-08T10:02:54.489Z,1.60
2018-09-08T10:05:24.556Z,1.37
2018-09-08T10:07:54.624Z,1.80
2018-09-08T10:10:26.177Z,1.57
2018-09-08T10:12:55.311Z,1.50
2018-09-08T10:15:24.555Z,1.70
2018-09-08T10:17:53.669Z,1.40
2018-09-08T10:20:23.689Z,1.83
2018-09-08T10:22:53.673Z,1.60
2018-09-08T10:25:22.900Z,1.70
2018-09-08T10:27:52.022Z,1.67
2018-09-08T10:30:21.211Z,1.57
2018-09-08T10:32:50.330Z,1.70
2018-09-08T10:35:19.526Z,1.80
2018-09-08T10:37:48.670Z,1.40
2018-09-08T10:40:17.984Z,1.63
2018-09-08T10:42:47.132Z,1.70
2018-09-08T10:45:16.356Z,1.60
2018-09-08T10:47:45.540Z,2.00
2018-09-08T10:50:15.255Z,1.90
2018-09-08T10:52:45.832Z,1.67
2018-09-08T10:55:14.923Z,1.70
2018-09-08T10:57:44.136Z,1.80
2018-09-08T11:00:13.577Z,1.63
2018-09-08T11:02:42.976Z,1.40
2018-09-08T11:05:11.865Z,1.50
2018-09-08T11:07:40.975Z,1.47
2018-09-08T11:10:10.185Z,1.93
2018-09-08T11:12:39.337Z,1.80
2018-09-08T11:15:09.568Z,1.60
2018-09-08T11:17:38.780Z,1.90
2018-09-08T11:20:08.352Z,1.90
2018-09-08T11:22:37.611Z,1.90
2018-09-08T11:25:06.918Z,1.93
2018-09-08T11:27:36.048Z,2.00
2018-09-08T11:30:05.768Z,1.77
2018-09-08T11:32:34.996Z,1.80
2018-09-08T11:35:04.184Z,1.77
2018-09-08T11:37:33.306Z,1.90
2018-09-08T11:40:03.259Z,2.30
2018-09-08T11:42:32.389Z,2.13
2018-09-08T11:45:01.557Z,2.00
2018-09-08T11:47:30.707Z,1.80
2018-09-08T11:49:59.808Z,2.10
2018-09-08T11:52:28.908Z,2.10
2018-09-08T11:54:58.088Z,2.07
2018-09-08T11:57:27.988Z,1.70
2018-09-08T11:59:57.228Z,2.20
2018-09-08T12:02:26.329Z,2.30
2018-09-08T12:04:55.461Z,2.10
2018-09-08T12:07:24.581Z,2.07
2018-09-08T12:09:53.737Z,2.40
2018-09-08T12:12:22.976Z,2.67
2018-09-08T12:14:52.156Z,2.20
2018-09-08T12:17:21.281Z,2.30
2018-09-08T12:19:50.429Z,2.50
2018-09-08T12:22:19.689Z,2.60
2018-09-08T12:24:48.809Z,2.50
2018-09-08T12:27:17.909Z,2.70
2018-09-08T12:29:47.065Z,2.70
2018-09-08T12:32:16.175Z,2.33
2018-09-08T12:34:45.424Z,2.80
2018-09-08T12:37:14.566Z,3.20
2018-09-08T12:39:43.797Z,3.13
2018-09-08T12:42:12.973Z,2.90
2018-09-08T12:44:43.732Z,3.07
2018-09-08T12:47:12.855Z,3.60
2018-09-08T12:49:42.089Z,3.40
2018-09-08T12:52:11.199Z,3.50
2018-09-08T12:54:40.540Z,4.00
2018-09-08T12:57:09.776Z,3.30
2018-09-08T12:59:38.990Z,3.80
2018-09-08T13:02:08.092Z,3.50
2018-09-08T13:04:37.268Z,3.40
2018-09-08T13:07:06.455Z,3.90
2018-09-08T13:09:35.576Z,3.73
2018-09-08T13:12:04.711Z,4.47
2018-09-08T13:14:33.840Z,4.20
2018-09-08T13:17:03.005Z,4.40
2018-09-08T13:19:32.123Z,4.27
2018-09-08T13:22:01.344Z,4.83
2018-09-08T13:24:30.504Z,5.00
2018-09-08T13:26:59.716Z,5.40
2018-09-08T13:29:28.970Z,5.10
2018-09-08T13:31:58.248Z,5.00
2018-09-08T13:34:27.425Z,5.77
2018-09-08T13:36:56.584Z,4.63
2018-09-08T13:39:27.376Z,5.23
2018-09-08T13:41:56.505Z,5.27
2018-09-08T13:44:25.652Z,5.50
2018-09-08T13:46:54.824Z,5.80
2018-09-08T13:49:23.904Z,5.10
2018-09-08T13:51:53.087Z,5.00
2018-09-08T13:54:22.257Z,4.53
2018-09-08T13:56:51.452Z,4.30
2018-09-08T13:59:20.608Z,4.47
2018-09-08T14:01:49.790Z,4.50
2018-09-08T14:04:18.927Z,4.63
2018-09-08T14:06:48.071Z,4.50
2018-09-08T14:09:17.232Z,4.60
2018-09-08T14:11:46.380Z,4.60
2018-09-08T14:14:15.511Z,3.97
2018-09-08T14:16:44.765Z,3.77
2018-09-08T14:19:13.966Z,3.90
2018-09-08T14:21:43.162Z,3.40
2018-09-08T14:24:12.482Z,3.03
2018-09-08T14:26:41.625Z,2.47
2018-09-08T14:29:10.994Z,2.40
2018-09-08T14:31:40.129Z,2.80
2018-09-08T14:34:09.296Z,2.70
2018-09-08T14:36:39.065Z,2.60
2018-09-08T14:39:09.181Z,2.00
2018-09-08T14:41:38.347Z,2.00
2018-09-08T14:44:07.773Z,2.00
2018-09-08T14:46:36.988Z,2.27
2018-09-08T14:49:06.887Z,2.20
2018-09-08T14:51:36.077Z,2.40
2018-09-08T14:54:05.240Z,2.20
2018-09-08T14:56:34.610Z,2.37
2018-09-08T14:59:03.774Z,2.20
2018-09-08T15:01:32.905Z,2.07
2018-09-08T15:04:02.040Z,2.13
2018-09-08T15:06:31.902Z,2.30
2018-09-08T15:09:01.044Z,1.97
2018-09-08T15:11:30.198Z,2.00
2018-09-08T15:13:59.340Z,2.00
2018-09-08T15:16:28.516Z,1.93
2018-09-08T15:18:57.727Z,1.80
2018-09-08T15:21:26.928Z,1.90
2018-09-08T15:23:56.614Z,1.50
2018-09-08T15:26:25.838Z,1.57
2018-09-08T15:28:54.953Z,1.70
2018-09-08T15:31:24.072Z,2.20
2018-09-08T15:33:53.308Z,1.80
2018-09-08T15:36:22.462Z,2.00
2018-09-08T15:38:51.603Z,2.03
2018-09-08T15:41:20.708Z,1.90
2018-09-08T15:43:49.905Z,1.77
2018-09-08T15:46:19.061Z,1.70
2018-09-08T15:48:48.319Z,1.50
2018-09-08T15:51:17.622Z,1.63
2018-09-08T15:53:46.695Z,1.70
2018-09-08T15:56:15.836Z,1.70
2018-09-08T15:58:44.986Z,1.60
2018-09-08T16:01:14.084Z,1.80
2018-09-08T16:03:43.947Z,2.00
2018-09-08T16:06:13.198Z,1.80
2018-09-08T16:08:42.337Z,2.03
2018-09-08T16:11:11.439Z,1.60
2018-09-08T16:13:40.604Z,1.70
2018-09-08T16:16:09.770Z,1.63
2018-09-08T16:18:38.901Z,2.07
2018-09-08T16:21:08.220Z,1.70
2018-09-08T16:23:37.661Z,1.63
2018-09-08T16:26:06.969Z,2.03
2018-09-08T16:28:36.146Z,1.70
2018-09-08T16:31:05.501Z,1.77
2018-09-08T16:33:34.645Z,1.57
2018-09-08T16:36:04.012Z,1.60
2018-09-08T16:38:33.135Z,1.70
2018-09-08T16:41:02.329Z,2.00
2018-09-08T16:43:31.755Z,1.80
2018-09-08T16:46:00.867Z,1.70
2018-09-08T16:48:30.477Z,1.73
2018-09-08T16:50:59.648Z,1.80
2018-09-08T16:53:28.790Z,1.80
2018-09-08T16:55:57.909Z,1.70
2018-09-08T16:58:27.494Z,1.93
2018-09-08T17:00:56.674Z,1.70
2018-09-08T17:03:25.855Z,1.60
2018-09-08T17:05:54.995Z,1.80
2018-09-08T17:08:24.073Z,1.83
2018-09-08T17:10:53.318Z,1.67
2018-09-08T17:13:22.537Z,2.40
2018-09-08T17:15:51.689Z,2.20
2018-09-08T17:18:20.835Z,2.30
2018-09-08T17:20:49.987Z,2.20
2018-09-08T17:23:19.105Z,2.07
2018-09-08T17:25:48.235Z,1.97
2018-09-08T17:28:17.667Z,2.10
2018-09-08T17:30:46.696Z,2.20
2018-09-08T17:33:15.968Z,2.00
2018-09-08T17:35:45.050Z,2.30
2018-09-08T17:38:14.210Z,2.30
2018-09-08T17:40:43.422Z,2.37
2018-09-08T17:43:12.577Z,2.07
2018-09-08T17:45:41.817Z,2.30
2018-09-08T17:48:10.955Z,2.30
2018-09-08T17:50:40.117Z,2.60
2018-09-08T17:53:15.842Z,2.30
2018-09-08T17:55:45.026Z,2.50
2018-09-08T17:58:14.162Z,2.53
2018-09-08T18:00:43.304Z,2.60
2018-09-08T18:03:12.465Z,2.70
2018-09-08T18:05:41.661Z,3.07
2018-09-08T18:08:10.797Z,2.40
2018-09-08T18:10:39.956Z,2.70
2018-09-08T18:13:09.088Z,2.80
2018-09-08T18:15:38.220Z,2.50
2018-09-08T18:18:07.512Z,2.80
2018-09-08T18:20:36.801Z,2.70
2018-09-08T18:23:06.034Z,2.93
2018-09-08T18:25:35.129Z,2.80
2018-09-08T18:28:04.393Z,3.00
2018-09-08T18:30:33.603Z,2.90
2018-09-08T18:33:02.781Z,3.10
2018-09-08T18:35:31.938Z,2.97
2018-09-08T18:38:01.061Z,2.80
2018-09-08T18:40:30.257Z,2.67
2018-09-08T18:42:59.368Z,2.70
2018-09-08T18:45:28.888Z,3.20
2018-09-08T18:47:58.112Z,3.40
2018-09-08T18:50:27.505Z,2.90
2018-09-08T18:52:56.636Z,2.87
2018-09-08T18:55:25.911Z,2.83
2018-09-08T18:57:55.085Z,2.50
2018-09-08T19:00:24.256Z,2.73
2018-09-08T19:02:53.481Z,3.23
2018-09-08T19:05:22.741Z,2.43
2018-09-08T19:07:51.958Z,2.90
2018-09-08T19:10:21.211Z,3.20
2018-09-08T19:12:50.438Z,3.30
2018-09-08T19:15:19.645Z,3.20
2018-09-08T19:17:48.782Z,2.93
2018-09-08T19:20:23.389Z,3.40
2018-09-08T19:22:52.556Z,3.40
2018-09-08T19:25:21.763Z,3.40
2018-09-08T19:27:50.908Z,3.20
2018-09-08T19:30:20.281Z,3.80
2018-09-08T19:32:49.428Z,3.40
2018-09-08T19:35:23.917Z,3.37
2018-09-08T19:37:53.073Z,3.60
2018-09-08T19:40:27.879Z,3.67
2018-09-08T19:42:57.319Z,3.90
2018-09-08T19:45:30.316Z,3.57
2018-09-08T19:48:05.372Z,3.53
2018-09-08T19:50:34.807Z,3.70
2018-09-08T19:53:09.205Z,3.67
2018-09-08T19:55:38.431Z,3.60
2018-09-08T19:58:12.934Z,3.80
2018-09-08T20:00:42.091Z,3.57
2018-09-08T20:03:11.228Z,3.43
2018-09-08T20:05:40.389Z,3.70
2018-09-08T20:08:09.650Z,3.23
2018-09-08T20:10:39.244Z,3.80
2018-09-08T20:13:08.392Z,3.20
2018-09-08T20:15:37.949Z,3.17
2018-09-08T20:18:07.197Z,3.60
2018-09-08T20:20:36.521Z,3.40
2018-09-08T20:23:05.803Z,3.27
2018-09-08T20:25:34.954Z,3.30
2018-09-08T20:28:04.130Z,3.20
2018-09-08T20:30:33.329Z,3.40
2018-09-08T20:33:02.653Z,3.40
2018-09-08T20:35:31.826Z,3.67
2018-09-08T20:38:01.052Z,3.13
2018-09-08T20:40:30.196Z,3.00
2018-09-08T20:43:00.151Z,3.57
2018-09-08T20:45:29.541Z,3.20
2018-09-08T20:47:58.670Z,3.50
2018-09-08T20:50:27.880Z,3.67
2018-09-08T20:52:57.065Z,3.30
2018-09-08T20:55:26.204Z,3.63
2018-09-08T20:57:55.494Z,3.87
2018-09-08T21:00:25.391Z,3.67
2018-09-08T21:02:54.525Z,3.57
2018-09-08T21:05:23.785Z,3.53
2018-09-08T21:07:52.904Z,3.50
2018-09-08T21:10:22.013Z,3.80
2018-09-08T21:12:51.254Z,3.73
2018-09-08T21:15:20.407Z,3.67
2018-09-08T21:17:49.621Z,3.63
2018-09-08T21:20:18.739Z,3.60
2018-09-08T21:22:48.026Z,3.87
2018-09-08T21:25:17.853Z,4.10
2018-09-08T21:27:47.055Z,3.97
2018-09-08T21:30:16.083Z,3.80
2018-09-08T21:32:45.220Z,4.03
2018-09-08T21:35:14.323Z,3.87
2018-09-08T21:37:43.555Z,4.30
2018-09-08T21:40:12.707Z,3.80
2018-09-08T21:42:41.892Z,4.70
2018-09-08T21:45:11.024Z,4.20
2018-09-08T21:47:40.279Z,4.17
2018-09-08T21:50:09.555Z,4.20
2018-09-08T21:52:38.705Z,4.60
2018-09-08T21:55:07.961Z,4.50
2018-09-08T21:57:37.088Z,4.83
2018-09-08T22:00:07.134Z,4.20
2018-09-08T22:02:36.305Z,4.70
2018-09-08T22:05:05.540Z,4.80
2018-09-08T22:07:34.645Z,5.00
2018-09-08T22:10:03.800Z,5.00
2018-09-08T22:12:33.052Z,4.50
2018-09-08T22:15:02.336Z,4.73
2018-09-08T22:17:31.550Z,5.20
2018-09-08T22:20:00.720Z,4.50
2018-09-08T22:22:29.985Z,5.10
2018-09-08T22:24:59.835Z,5.00
2018-09-08T22:27:28.986Z,5.10
2018-09-08T22:29:58.200Z,5.10
2018-09-08T22:32:27.332Z,5.00
2018-09-08T22:34:56.429Z,5.20
2018-09-08T22:37:25.560Z,4.83
2018-09-08T22:39:54.762Z,5.13
2018-09-08T22:42:23.940Z,4.90
2018-09-08T22:44:53.116Z,4.80
2018-09-08T22:47:22.227Z,4.90
2018-09-08T22:49:51.525Z,5.00
2018-09-08T22:52:20.652Z,4.93
2018-09-08T22:54:49.804Z,4.93
2018-09-08T22:57:19.175Z,4.80
2018-09-08T22:59:48.645Z,4.60
2018-09-08T23:02:17.677Z,4.40
2018-09-08T23:04:46.865Z,4.10
2018-09-08T23:07:15.979Z,4.60
2018-09-08T23:09:45.660Z,4.57
2018-09-08T23:12:14.800Z,4.57
2018-09-08T23:14:44.050Z,4.07
2018-09-08T23:17:13.160Z,4.17
2018-09-08T23:19:42.331Z,4.03
2018-09-08T23:22:11.443Z,4.30
2018-09-08T23:24:40.554Z,5.00
2018-09-08T23:27:09.684Z,4.60
2018-09-08T23:29:38.813Z,4.60
2018-09-08T23:32:07.973Z,4.47
2018-09-08T23:34:37.103Z,4.53
2018-09-08T23:37:06.260Z,4.60
2018-09-08T23:39:35.458Z,4.27
2018-09-08T23:42:04.579Z,5.00
2018-09-08T23:44:33.752Z,4.70
2018-09-08T23:47:02.913Z,4.90
2018-09-08T23:49:32.133Z,4.87
2018-09-08T23:52:01.295Z,5.40
2018-09-08T23:54:30.539Z,4.80
2018-09-08T23:56:59.815Z,5.37
2018-09-08T23:59:29.316Z,5.40
